Accueil
METAR-TAF:

METAR-TAF

Aéroports :

Makkovik, Terre-Neuve-et-Labrador, Canada

latitude: 55-05N, longitude: 059-11W, altitude: 71 m

Observation

Le bulletin a été fait il y a 5 heures et 30 minutes, à 21:00 UTC
Vent 26 kt de ouest avec des rafales jusqu'à 33 kt
Température -16°C
Humidité 55%
Pression 1019 hPa
Visibilité: 24.1 km
Nuages épars à une hauteur de 12000 ft
Chasse-neige basse

METAR: CYFT 222100Z 26026G33KT 15SM DRSN SCT120 M16/M23 A3010 RMK AC4 LAST OBS/NEXT 231000 UTC SLP204

Heure: 22:30 (02:30 UTC)


TAF: absent

Observations et prévisions météorologiques de plus de 4000 aéroports (messages METAR et TAF).

Les stations disponibles sont représentées par des disques jaunes et rouges sur la carte.

Passer la souris dessus pour voir le nom de la station.

Cliquer dessus pour voir les observations et prévisions météorologiques.

Pour changer de carte: cliquez sur les boutons verts avec une croix noire pour zoomer, sur le bouton vert avec un tiret pour effectuer un zoom arrière, ou sur les flèches vertes pour les cartes adjacentes.


METAR-TAF: